createdAt,value
2018-11-27T00:00:30.356Z,2.83
2018-11-27T00:03:06.635Z,2.79
2018-11-27T00:05:41.158Z,2.76
2018-11-27T00:08:15.083Z,2.80
2018-11-27T00:10:49.044Z,2.84
2018-11-27T00:13:22.849Z,2.85
2018-11-27T00:15:56.824Z,2.87
2018-11-27T00:18:30.684Z,2.86
2018-11-27T00:21:04.585Z,2.87
2018-11-27T00:23:38.504Z,2.91
2018-11-27T00:26:12.357Z,2.82
2018-11-27T00:28:46.181Z,2.76
2018-11-27T00:31:20.030Z,2.78
2018-11-27T00:33:53.882Z,2.81
2018-11-27T00:36:27.734Z,2.84
2018-11-27T00:39:01.613Z,2.87
2018-11-27T00:41:35.595Z,2.89
2018-11-27T00:44:10.529Z,2.85
2018-11-27T00:46:44.401Z,2.80
2018-11-27T00:49:18.286Z,2.82
2018-11-27T00:51:52.262Z,2.79
2018-11-27T00:54:26.162Z,2.80
2018-11-27T00:57:00.190Z,2.87
2018-11-27T00:59:34.056Z,2.90
2018-11-27T01:02:08.142Z,2.92
2018-11-27T01:04:41.954Z,2.91
2018-11-27T01:07:16.175Z,2.87
2018-11-27T01:09:50.125Z,2.84
2018-11-27T01:12:24.202Z,2.84
2018-11-27T01:14:59.069Z,2.78
2018-11-27T01:17:32.993Z,2.78
2018-11-27T01:20:13.013Z,2.77
2018-11-27T01:22:46.994Z,2.78
2018-11-27T01:25:20.863Z,2.77
2018-11-27T01:27:54.737Z,2.76
2018-11-27T01:30:28.558Z,2.73
2018-11-27T01:33:02.411Z,2.72
2018-11-27T01:35:36.315Z,2.70
2018-11-27T01:38:10.210Z,2.72
2018-11-27T01:40:44.043Z,2.71
2018-11-27T01:43:18.027Z,2.65
2018-11-27T01:45:51.862Z,2.63
2018-11-27T01:48:25.722Z,2.52
2018-11-27T01:50:59.572Z,2.49
2018-11-27T01:53:33.489Z,2.50
2018-11-27T01:56:07.435Z,2.45
2018-11-27T01:58:41.384Z,2.44
2018-11-27T02:01:15.251Z,2.51
2018-11-27T02:03:49.200Z,2.52
2018-11-27T02:06:23.101Z,2.52
2018-11-27T02:08:57.023Z,2.56
2018-11-27T02:11:30.858Z,2.47
2018-11-27T02:14:04.910Z,2.46
2018-11-27T02:16:38.774Z,2.49
2018-11-27T02:19:12.631Z,2.56
2018-11-27T02:21:46.462Z,2.58
2018-11-27T02:24:20.545Z,2.47
2018-11-27T02:26:54.571Z,2.37
2018-11-27T02:29:28.684Z,2.43
2018-11-27T02:32:02.622Z,2.45
2018-11-27T02:34:36.484Z,2.48
2018-11-27T02:37:10.328Z,2.44
2018-11-27T02:39:44.246Z,2.43
2018-11-27T02:42:18.327Z,2.46
2018-11-27T02:44:52.445Z,2.49
2018-11-27T02:47:26.472Z,2.46
2018-11-27T02:50:00.502Z,2.48
2018-11-27T02:52:34.526Z,2.51
2018-11-27T02:55:12.014Z,2.58
2018-11-27T02:57:45.999Z,2.67
2018-11-27T03:00:25.167Z,2.74
2018-11-27T03:02:59.168Z,2.84
2018-11-27T03:05:35.126Z,2.80
2018-11-27T03:08:09.126Z,2.91
2018-11-27T03:10:43.149Z,3.01
2018-11-27T03:13:17.353Z,3.01
2018-11-27T03:15:51.408Z,2.87
2018-11-27T03:18:25.445Z,2.96
2018-11-27T03:20:59.535Z,3.00
2018-11-27T03:23:33.575Z,3.14
2018-11-27T03:26:07.905Z,3.03
2018-11-27T03:28:41.939Z,3.10
2018-11-27T03:31:16.120Z,3.21
2018-11-27T03:33:50.105Z,3.31
2018-11-27T03:36:24.159Z,3.39
2018-11-27T03:38:58.144Z,3.33
2018-11-27T03:41:32.215Z,3.25
2018-11-27T03:44:06.619Z,3.27
2018-11-27T03:46:40.628Z,3.31
2018-11-27T03:49:14.573Z,3.34
2018-11-27T03:51:48.559Z,3.22
2018-11-27T03:54:22.524Z,3.11
2018-11-27T03:56:56.521Z,3.14
2018-11-27T03:59:30.447Z,3.29
2018-11-27T04:02:04.602Z,3.20
2018-11-27T04:04:38.575Z,3.27
2018-11-27T04:07:12.633Z,3.33
2018-11-27T04:09:46.651Z,3.33
2018-11-27T04:12:20.684Z,3.33
2018-11-27T04:14:54.783Z,3.26
2018-11-27T04:17:28.838Z,3.12
2018-11-27T04:20:03.404Z,3.28
2018-11-27T04:22:37.807Z,3.32
2018-11-27T04:25:13.829Z,3.42
2018-11-27T04:27:48.505Z,3.37
2018-11-27T04:30:23.196Z,3.27
2018-11-27T04:32:57.193Z,3.34
2018-11-27T04:35:31.220Z,3.35
2018-11-27T04:38:05.449Z,3.41
2018-11-27T04:40:39.416Z,3.39
2018-11-27T04:43:13.523Z,3.32
2018-11-27T04:45:47.460Z,3.43
2018-11-27T04:48:21.787Z,3.34
2018-11-27T04:50:55.769Z,3.33
2018-11-27T04:53:29.855Z,3.41
2018-11-27T04:56:03.888Z,3.46
2018-11-27T04:58:37.853Z,3.51
2018-11-27T05:01:11.778Z,3.43
2018-11-27T05:03:45.767Z,3.19
2018-11-27T05:06:19.706Z,3.23
2018-11-27T05:08:53.780Z,3.22
2018-11-27T05:11:27.761Z,3.37
2018-11-27T05:14:01.759Z,3.40
2018-11-27T05:16:35.758Z,3.44
2018-11-27T05:19:09.733Z,3.51
2018-11-27T05:21:45.745Z,3.55
2018-11-27T05:24:19.836Z,3.58
2018-11-27T05:26:53.795Z,3.61
2018-11-27T05:29:27.764Z,3.63
2018-11-27T05:32:01.712Z,3.57
2018-11-27T05:34:35.718Z,3.34
2018-11-27T05:37:09.731Z,3.35
2018-11-27T05:39:44.027Z,3.24
2018-11-27T05:42:18.049Z,3.21
2018-11-27T05:44:52.028Z,3.34
2018-11-27T05:47:25.969Z,3.43
2018-11-27T05:50:00.006Z,3.47
2018-11-27T05:52:33.947Z,3.46
2018-11-27T05:55:09.350Z,3.51
2018-11-27T05:57:43.964Z,3.56
2018-11-27T06:00:21.258Z,3.59
2018-11-27T06:02:57.584Z,3.59
2018-11-27T06:05:31.514Z,3.58
2018-11-27T06:08:05.537Z,3.61
2018-11-27T06:10:39.487Z,3.60
2018-11-27T06:13:13.508Z,3.62
2018-11-27T06:15:47.604Z,3.54
2018-11-27T06:18:21.540Z,3.54
2018-11-27T06:20:55.593Z,3.54
2018-11-27T06:23:29.500Z,3.57
2018-11-27T06:26:03.526Z,3.57
2018-11-27T06:28:37.460Z,3.55
2018-11-27T06:31:11.429Z,3.55
2018-11-27T06:33:45.437Z,3.54
2018-11-27T06:36:19.495Z,3.51
2018-11-27T06:38:53.439Z,3.46
2018-11-27T06:41:27.415Z,3.46
2018-11-27T06:44:01.411Z,3.45
2018-11-27T06:46:35.454Z,3.43
2018-11-27T06:49:09.371Z,3.40
2018-11-27T06:51:43.416Z,3.35
2018-11-27T06:54:17.362Z,3.30
2018-11-27T06:56:51.459Z,3.26
2018-11-27T06:59:25.495Z,3.23
2018-11-27T07:01:59.654Z,3.10
2018-11-27T07:04:33.612Z,3.09
2018-11-27T07:07:07.629Z,3.08
2018-11-27T07:09:41.585Z,3.07
2018-11-27T07:12:15.555Z,3.00
2018-11-27T07:14:49.710Z,2.96
2018-11-27T07:17:23.704Z,2.96
2018-11-27T07:19:57.627Z,2.93
2018-11-27T07:22:31.626Z,2.89
2018-11-27T07:25:06.781Z,2.87
2018-11-27T07:27:41.160Z,2.81
2018-11-27T07:30:17.280Z,2.79
2018-11-27T07:32:51.376Z,2.81
2018-11-27T07:35:25.312Z,2.78
2018-11-27T07:37:59.310Z,2.75
2018-11-27T07:40:33.284Z,2.75
2018-11-27T07:43:12.408Z,2.75
2018-11-27T07:45:46.436Z,2.75
2018-11-27T07:48:20.399Z,2.68
2018-11-27T07:50:54.332Z,2.59
2018-11-27T07:53:28.300Z,2.62
2018-11-27T07:56:02.249Z,2.67
2018-11-27T07:58:36.327Z,2.69
2018-11-27T08:01:10.370Z,2.72
2018-11-27T08:03:44.346Z,2.73
2018-11-27T08:06:18.443Z,2.80
2018-11-27T08:08:52.497Z,2.83
2018-11-27T08:11:26.434Z,2.86
2018-11-27T08:14:00.424Z,2.91
2018-11-27T08:16:34.519Z,2.94
2018-11-27T08:19:08.505Z,2.96
2018-11-27T08:21:43.375Z,2.97
2018-11-27T08:24:17.387Z,3.01
2018-11-27T08:26:51.384Z,3.06
2018-11-27T08:29:25.478Z,3.10
2018-11-27T08:31:59.923Z,3.12
2018-11-27T08:34:34.020Z,3.17
2018-11-27T08:37:07.958Z,3.22
2018-11-27T08:39:41.907Z,3.27
2018-11-27T08:42:16.295Z,3.30
2018-11-27T08:44:50.317Z,3.29
2018-11-27T08:47:24.335Z,3.35
2018-11-27T08:49:58.879Z,3.41
2018-11-27T08:52:33.891Z,3.35
2018-11-27T08:55:10.983Z,3.45
2018-11-27T08:57:46.417Z,3.47
2018-11-27T09:00:22.936Z,3.58
2018-11-27T09:02:56.892Z,3.66
2018-11-27T09:05:30.976Z,3.72
2018-11-27T09:08:05.694Z,3.71
2018-11-27T09:10:39.844Z,3.72
2018-11-27T09:13:13.998Z,3.83
2018-11-27T09:15:47.925Z,3.96
2018-11-27T09:18:25.472Z,4.05
2018-11-27T09:20:59.827Z,4.15
2018-11-27T09:23:33.975Z,4.25
2018-11-27T09:26:08.185Z,4.33
2018-11-27T09:28:42.146Z,4.41
2018-11-27T09:31:16.184Z,4.52
2018-11-27T09:33:50.110Z,4.59
2018-11-27T09:36:24.387Z,4.66
2018-11-27T09:38:58.707Z,4.72
2018-11-27T09:41:32.701Z,4.78
2018-11-27T09:44:07.707Z,4.73
2018-11-27T09:46:42.699Z,4.75
2018-11-27T09:49:16.865Z,4.83
2018-11-27T09:51:50.830Z,4.88
2018-11-27T09:54:24.899Z,4.85
2018-11-27T09:56:59.025Z,4.82
2018-11-27T09:59:32.992Z,4.98
2018-11-27T10:02:07.232Z,5.08
2018-11-27T10:04:41.207Z,5.19
2018-11-27T10:07:15.258Z,5.28
2018-11-27T10:09:49.187Z,5.31
2018-11-27T10:12:23.293Z,5.39
2018-11-27T10:14:57.242Z,5.46
2018-11-27T10:17:31.243Z,5.38
2018-11-27T10:20:05.885Z,5.44
2018-11-27T10:22:39.969Z,5.03
2018-11-27T10:25:14.185Z,5.12
2018-11-27T10:27:48.447Z,4.98
2018-11-27T10:30:24.473Z,4.96
2018-11-27T10:32:59.547Z,5.10
2018-11-27T10:35:38.979Z,5.29
2018-11-27T10:38:13.151Z,5.06
2018-11-27T10:40:47.348Z,5.23
2018-11-27T10:43:21.563Z,5.40
2018-11-27T10:45:55.733Z,5.41
2018-11-27T10:48:29.915Z,5.34
2018-11-27T10:51:03.894Z,5.24
2018-11-27T10:53:37.945Z,5.00
2018-11-27T10:56:11.933Z,5.05
2018-11-27T10:58:45.900Z,5.04
2018-11-27T11:01:24.878Z,5.21
2018-11-27T11:03:59.012Z,5.28
2018-11-27T11:06:33.731Z,5.24
2018-11-27T11:09:09.945Z,4.93
2018-11-27T11:11:44.611Z,4.95
2018-11-27T11:14:18.831Z,5.04
2018-11-27T11:16:53.121Z,4.85
2018-11-27T11:19:27.410Z,4.92
2018-11-27T11:22:01.354Z,5.02
2018-11-27T11:24:35.600Z,5.21
2018-11-27T11:27:09.758Z,4.83
2018-11-27T11:29:43.723Z,5.01
2018-11-27T11:32:17.857Z,5.06
2018-11-27T11:34:51.967Z,5.18
2018-11-27T11:37:25.919Z,5.22
2018-11-27T11:39:59.916Z,5.24
2018-11-27T11:42:33.893Z,5.07
2018-11-27T11:45:09.222Z,5.18
2018-11-27T11:47:43.301Z,5.26
2018-11-27T11:50:19.380Z,5.26
2018-11-27T11:52:58.579Z,4.92
2018-11-27T11:55:32.568Z,5.08
2018-11-27T11:58:07.712Z,5.29
2018-11-27T12:00:46.457Z,5.30
2018-11-27T12:03:20.475Z,5.30
2018-11-27T12:05:54.577Z,5.39
2018-11-27T12:08:28.662Z,5.45
2018-11-27T12:11:02.797Z,5.35
2018-11-27T12:13:36.927Z,5.50
2018-11-27T12:16:11.021Z,5.31
2018-11-27T12:18:45.108Z,5.41
2018-11-27T12:21:19.150Z,5.51
2018-11-27T12:23:53.081Z,5.10
2018-11-27T12:26:27.391Z,5.08
2018-11-27T12:29:01.399Z,5.21
2018-11-27T12:31:35.413Z,4.99
2018-11-27T12:34:09.408Z,5.18
2018-11-27T12:36:43.419Z,5.31
2018-11-27T12:39:17.449Z,5.36
2018-11-27T12:41:51.728Z,5.09
2018-11-27T12:44:25.891Z,5.15
2018-11-27T12:46:59.893Z,5.28
2018-11-27T12:49:33.830Z,5.42
2018-11-27T12:52:07.933Z,5.48
2018-11-27T12:54:41.989Z,5.45
2018-11-27T12:57:16.070Z,5.33
2018-11-27T12:59:50.088Z,5.22
2018-11-27T13:02:24.085Z,5.16
2018-11-27T13:04:58.138Z,5.17
2018-11-27T13:07:32.280Z,5.17
2018-11-27T13:10:10.099Z,5.25
2018-11-27T13:12:44.754Z,5.13
2018-11-27T13:15:19.916Z,5.25
2018-11-27T13:17:54.496Z,5.22
2018-11-27T13:20:28.437Z,5.29
2018-11-27T13:23:02.495Z,5.10
2018-11-27T13:25:37.053Z,5.08
2018-11-27T13:28:12.411Z,5.19
2018-11-27T13:31:07.247Z,5.25
2018-11-27T13:34:01.593Z,5.04
2018-11-27T13:36:35.587Z,5.08
2018-11-27T13:39:20.655Z,5.06
2018-11-27T13:41:54.748Z,5.05
2018-11-27T13:44:28.736Z,5.02
2018-11-27T13:47:02.721Z,5.02
2018-11-27T13:49:36.725Z,4.95
2018-11-27T13:52:10.949Z,4.91
2018-11-27T13:54:44.995Z,4.97
2018-11-27T13:57:19.073Z,4.90
2018-11-27T13:59:53.195Z,4.95
2018-11-27T14:02:27.179Z,4.88
2018-11-27T14:05:02.111Z,4.92
2018-11-27T14:07:36.140Z,4.93
2018-11-27T14:10:11.384Z,4.85
2018-11-27T14:12:45.470Z,4.81
2018-11-27T14:15:20.835Z,4.75
2018-11-27T14:17:56.365Z,4.77
2018-11-27T14:20:30.808Z,4.74
2018-11-27T14:23:05.021Z,4.66
2018-11-27T14:25:39.178Z,4.54
2018-11-27T14:28:13.163Z,4.55
2018-11-27T14:30:47.276Z,4.50
2018-11-27T14:33:21.235Z,4.40
2018-11-27T14:35:55.384Z,4.42
2018-11-27T14:38:29.329Z,4.40
2018-11-27T14:41:03.385Z,4.34
2018-11-27T14:43:37.443Z,4.35
2018-11-27T14:46:11.558Z,4.31
2018-11-27T14:48:45.537Z,4.27
2018-11-27T14:51:19.554Z,4.20
2018-11-27T14:53:53.504Z,4.13
2018-11-27T14:56:27.678Z,4.11
2018-11-27T14:59:01.618Z,4.08
2018-11-27T15:01:35.696Z,3.97
2018-11-27T15:04:09.664Z,3.85
2018-11-27T15:06:43.667Z,3.77
2018-11-27T15:09:17.668Z,3.76
2018-11-27T15:11:51.807Z,3.72
2018-11-27T15:14:25.785Z,3.64
2018-11-27T15:17:00.096Z,3.55
2018-11-27T15:19:34.405Z,3.52
2018-11-27T15:22:14.956Z,3.46
2018-11-27T15:24:48.890Z,3.45
2018-11-27T15:27:22.891Z,3.38
2018-11-27T15:29:56.815Z,3.33
2018-11-27T15:32:30.787Z,3.27
2018-11-27T15:35:04.841Z,3.19
2018-11-27T15:37:39.030Z,3.17
2018-11-27T15:40:19.839Z,3.15
2018-11-27T15:42:54.152Z,3.13
2018-11-27T15:45:32.508Z,3.08
2018-11-27T15:48:08.332Z,3.02
2018-11-27T15:50:43.021Z,2.99
2018-11-27T15:53:17.074Z,3.00
2018-11-27T15:55:51.257Z,2.96
2018-11-27T15:58:25.374Z,2.94
2018-11-27T16:00:59.382Z,2.86
2018-11-27T16:03:33.436Z,2.85
2018-11-27T16:06:07.514Z,2.81
2018-11-27T16:08:41.668Z,2.84
2018-11-27T16:11:15.923Z,2.82
2018-11-27T16:13:55.173Z,2.77
2018-11-27T16:16:24.151Z,2.79
2018-11-27T16:18:58.495Z,2.77
2018-11-27T16:21:32.540Z,2.76
2018-11-27T16:24:06.801Z,2.76
2018-11-27T16:26:40.864Z,2.72
2018-11-27T16:29:14.948Z,2.67
2018-11-27T16:31:48.990Z,2.61
2018-11-27T16:34:23.254Z,2.59
2018-11-27T16:36:57.297Z,2.61
2018-11-27T16:39:31.270Z,2.60
2018-11-27T16:42:05.399Z,2.58
2018-11-27T16:44:39.449Z,2.58
2018-11-27T16:47:13.394Z,2.54
2018-11-27T16:49:47.552Z,2.51
2018-11-27T16:52:21.566Z,2.49
2018-11-27T16:54:55.605Z,2.44
2018-11-27T16:57:29.627Z,2.39
2018-11-27T17:00:04.120Z,2.39
2018-11-27T17:02:38.085Z,2.36
2018-11-27T17:05:12.090Z,2.27
2018-11-27T17:07:46.033Z,2.26
2018-11-27T17:10:20.998Z,2.23
2018-11-27T17:12:56.214Z,2.22
2018-11-27T17:15:30.383Z,2.20
2018-11-27T17:18:04.525Z,2.14
2018-11-27T17:20:40.323Z,2.15
2018-11-27T17:23:15.557Z,2.08
2018-11-27T17:25:49.696Z,2.02
2018-11-27T17:28:27.755Z,1.95
2018-11-27T17:31:11.760Z,1.93
2018-11-27T17:33:48.524Z,1.93
2018-11-27T17:36:22.556Z,1.93
2018-11-27T17:38:56.645Z,1.80
2018-11-27T17:41:30.837Z,1.77
2018-11-27T17:44:04.822Z,1.72
2018-11-27T17:46:39.151Z,1.69
2018-11-27T17:49:13.289Z,1.74
2018-11-27T17:51:47.270Z,1.75
2018-11-27T17:54:21.195Z,1.75
2018-11-27T17:56:55.172Z,1.72
2018-11-27T17:59:29.139Z,1.70
2018-11-27T18:02:04.471Z,1.64
2018-11-27T18:04:38.439Z,1.62
2018-11-27T18:07:12.641Z,1.59
2018-11-27T18:09:46.610Z,1.53
2018-11-27T18:12:20.600Z,1.48
2018-11-27T18:14:54.586Z,1.48
2018-11-27T18:17:28.638Z,1.39
2018-11-27T18:20:02.660Z,1.43
2018-11-27T18:22:36.718Z,1.40
2018-11-27T18:25:16.826Z,1.37
2018-11-27T18:27:51.259Z,1.38
2018-11-27T18:30:25.353Z,1.33
2018-11-27T18:32:59.338Z,1.34
2018-11-27T18:35:33.271Z,1.37
2018-11-27T18:38:07.536Z,1.36
2018-11-27T18:40:41.457Z,1.36
2018-11-27T18:43:15.446Z,1.34
2018-11-27T18:45:49.372Z,1.32
2018-11-27T18:48:23.338Z,1.23
2018-11-27T18:50:57.268Z,1.25
2018-11-27T18:53:31.560Z,1.22
2018-11-27T18:56:05.661Z,1.20
2018-11-27T18:58:39.718Z,1.12
2018-11-27T19:01:14.811Z,1.10
2018-11-27T19:03:48.878Z,1.11
2018-11-27T19:06:22.838Z,1.11
2018-11-27T19:08:56.855Z,1.07
2018-11-27T19:11:30.810Z,1.06
2018-11-27T19:14:05.129Z,1.03
2018-11-27T19:16:39.106Z,0.80
2018-11-27T19:19:13.245Z,0.65
2018-11-27T19:21:47.214Z,0.62
2018-11-27T19:24:21.243Z,0.74
2018-11-27T19:26:59.398Z,0.80
2018-11-27T19:29:34.999Z,0.78
2018-11-27T19:32:09.063Z,0.75
2018-11-27T19:34:43.112Z,0.77
2018-11-27T19:37:17.058Z,0.78
2018-11-27T19:39:51.037Z,0.78
2018-11-27T19:42:24.989Z,0.75
2018-11-27T19:44:58.946Z,0.79
2018-11-27T19:47:32.950Z,0.78
2018-11-27T19:50:10.609Z,0.75
2018-11-27T19:52:45.620Z,0.62
2018-11-27T19:55:19.990Z,0.63
2018-11-27T19:57:53.935Z,0.68
2018-11-27T20:00:29.195Z,0.58
2018-11-27T20:03:03.185Z,0.55
2018-11-27T20:05:37.269Z,0.44
2018-11-27T20:08:13.232Z,0.37
2018-11-27T20:10:47.234Z,0.46
2018-11-27T20:13:21.206Z,0.50
2018-11-27T20:15:55.354Z,0.47
2018-11-27T20:18:29.394Z,0.48
2018-11-27T20:21:03.513Z,0.51
2018-11-27T20:23:37.519Z,0.44
2018-11-27T20:26:11.893Z,0.34
2018-11-27T20:28:45.885Z,0.37
2018-11-27T20:31:19.907Z,0.29
2018-11-27T20:33:53.852Z,0.21
2018-11-27T20:36:28.799Z,0.19
2018-11-27T20:39:02.949Z,0.20
2018-11-27T20:41:37.236Z,0.14
2018-11-27T20:44:11.171Z,0.08
2018-11-27T20:46:45.248Z,0.04
2018-11-27T20:49:20.251Z,-0.11
2018-11-27T20:51:54.465Z,-0.06
2018-11-27T20:54:28.847Z,0.01
2018-11-27T20:57:02.984Z,0.01
2018-11-27T20:59:36.962Z,-0.01
2018-11-27T21:02:10.985Z,0.01
2018-11-27T21:04:44.984Z,-0.02
2018-11-27T21:07:18.968Z,-0.04
2018-11-27T21:09:53.216Z,-0.10
2018-11-27T21:12:27.167Z,-0.21
2018-11-27T21:15:01.140Z,-0.17
2018-11-27T21:17:35.197Z,-0.17
2018-11-27T21:20:11.363Z,-0.17
2018-11-27T21:22:45.357Z,-0.15
2018-11-27T21:25:21.456Z,-0.22
2018-11-27T21:28:01.756Z,-0.26
2018-11-27T21:30:35.737Z,-0.39
2018-11-27T21:33:09.866Z,-0.42
2018-11-27T21:35:43.822Z,-0.47
2018-11-27T21:38:17.883Z,-0.50
2018-11-27T21:40:51.856Z,-0.43
2018-11-27T21:43:25.895Z,-0.41
2018-11-27T21:45:59.848Z,-0.48
2018-11-27T21:48:33.922Z,-0.57
2018-11-27T21:51:07.920Z,-0.67
2018-11-27T21:53:41.975Z,-0.73
2018-11-27T21:56:15.979Z,-0.77
2018-11-27T21:58:49.963Z,-0.75
2018-11-27T22:01:23.987Z,-0.70
2018-11-27T22:03:58.011Z,-0.66
2018-11-27T22:06:31.986Z,-0.67
2018-11-27T22:09:07.478Z,-0.72
2018-11-27T22:11:41.595Z,-0.78
2018-11-27T22:14:15.592Z,-0.76
2018-11-27T22:16:49.717Z,-0.78
2018-11-27T22:19:23.874Z,-0.77
2018-11-27T22:21:57.911Z,-0.81
2018-11-27T22:24:31.937Z,-0.85
2018-11-27T22:27:05.894Z,-0.85
2018-11-27T22:29:39.977Z,-0.83
2018-11-27T22:32:14.337Z,-0.85
2018-11-27T22:34:48.432Z,-0.89
2018-11-27T22:37:22.423Z,-0.93
2018-11-27T22:39:56.563Z,-1.01
2018-11-27T22:42:30.631Z,-0.94
2018-11-27T22:45:04.817Z,-0.93
2018-11-27T22:47:38.965Z,-1.01
2018-11-27T22:50:15.158Z,-1.00
2018-11-27T22:52:49.158Z,-0.97
2018-11-27T22:55:23.183Z,-0.99
2018-11-27T22:57:57.140Z,-1.02
2018-11-27T23:00:36.265Z,-0.96
2018-11-27T23:03:10.226Z,-0.99
2018-11-27T23:05:44.476Z,-1.07
2018-11-27T23:08:18.397Z,-1.22
2018-11-27T23:10:52.391Z,-1.27
2018-11-27T23:13:26.341Z,-1.18
2018-11-27T23:16:00.397Z,-1.11
2018-11-27T23:18:34.418Z,-1.09
2018-11-27T23:21:08.515Z,-1.11
2018-11-27T23:23:42.511Z,-1.17
2018-11-27T23:26:16.646Z,-1.32
2018-11-27T23:28:50.564Z,-1.31
2018-11-27T23:31:24.658Z,-1.27
2018-11-27T23:33:58.589Z,-1.28
2018-11-27T23:36:32.685Z,-1.21
2018-11-27T23:39:08.867Z,-1.18
2018-11-27T23:41:43.226Z,-1.11
2018-11-27T23:44:17.219Z,-1.14
2018-11-27T23:46:51.274Z,-1.35
2018-11-27T23:49:25.260Z,-1.51
2018-11-27T23:51:59.498Z,-1.40
2018-11-27T23:54:33.579Z,-1.34
2018-11-27T23:57:07.747Z,-1.29
2018-11-27T23:59:41.790Z,-1.31
